Time;durP1;ratioP1;P1;durP2;ratioP2;P2;SDS_P1;SDS_P2;PMS_P1;PMS_P2;Temp;Humidity;BMP_temperature;BMP_pressure;BME280_temperature;BME280_humidity;BME280_pressure;Samples;Min_cycle;Max_cycle;Signal;HPM_P1;HPM_P2
2021/04/19 00:01:54;;;;;;;38.55;25.30;;;154.50;2252.80;;;;;;5077881;28;20029;-66
2021/04/19 00:04:20;;;;;;;33.13;22.23;;;154.50;2252.80;;;;;;5075041;28;20028;-66
2021/04/19 00:06:46;;;;;;;37.83;23.85;;;154.50;2252.80;;;;;;5075552;28;20374;-67
2021/04/19 00:09:11;;;;;;;31.77;20.85;;;179.20;2252.80;;;;;;5076661;28;20024;-67
2021/04/19 00:11:37;;;;;;;35.72;21.90;;;179.30;2252.80;;;;;;5080479;28;20063;-66
2021/04/19 00:14:04;;;;;;;31.08;20.80;;;179.30;2252.80;;;;;;5071861;28;20024;-67
2021/04/19 00:16:30;;;;;;;33.25;20.90;;;179.30;2252.80;;;;;;5059938;28;20050;-67
2021/04/19 00:18:56;;;;;;;30.45;19.10;;;179.30;2252.80;;;;;;5072768;28;20020;-66
2021/04/19 00:21:21;;;;;;;28.63;18.92;;;179.40;2252.80;;;;;;5062998;28;20066;-67
2021/04/19 00:23:47;;;;;;;26.63;18.75;;;179.40;2252.80;;;;;;5072419;28;20028;-66
2021/04/19 00:26:13;;;;;;;27.08;17.75;;;179.40;2252.80;;;;;;5072061;28;20017;-67
2021/04/19 00:28:39;;;;;;;25.15;16.98;;;179.40;2252.80;;;;;;5071616;28;20031;-66
2021/04/19 00:31:05;;;;;;;24.40;17.27;;;179.40;2252.80;;;;;;5072401;28;20024;-67
2021/04/19 00:33:31;;;;;;;26.38;17.13;;;179.40;2252.80;;;;;;5071909;28;20029;-67
2021/04/19 00:35:57;;;;;;;25.17;16.67;;;179.30;2252.80;;;;;;5072179;28;20031;-66
2021/04/19 00:38:22;;;;;;;38.08;23.73;;;179.30;2252.80;;;;;;5071533;28;20024;-67
2021/04/19 00:40:53;;;;;;;29.92;19.55;;;154.50;2252.80;;;;;;5070468;28;20496;-67
2021/04/19 00:43:20;;;;;;;31.15;19.55;;;154.50;2252.80;;;;;;5071863;28;20021;-65
2021/04/19 00:45:51;;;;;;;25.45;17.02;;;154.40;2252.80;;;;;;5071907;28;20024;-67
2021/04/19 00:48:18;;;;;;;27.67;17.27;;;154.30;2252.80;;;;;;5071678;28;20017;-66
2021/04/19 00:50:48;;;;;;;31.65;21.10;;;154.20;2252.80;;;;;;5071712;28;20044;-65
2021/04/19 00:53:15;;;;;;;28.50;19.48;;;154.10;2252.80;;;;;;5079522;28;20031;-66
2021/04/19 00:55:40;;;;;;;24.90;16.67;;;153.90;2252.80;;;;;;5071876;28;20020;-66
2021/04/19 00:58:07;;;;;;;26.80;17.08;;;153.70;2252.80;;;;;;5071752;28;20042;-65
2021/04/19 01:00:34;;;;;;;27.05;17.23;;;153.70;2252.80;;;;;;5071051;28;20021;-66
2021/04/19 01:03:01;;;;;;;26.67;17.58;;;153.70;2252.80;;;;;;5071643;28;20524;-66
2021/04/19 01:05:36;;;;;;;31.40;19.95;;;153.60;2252.80;;;;;;5071349;28;20083;-66
2021/04/19 01:08:02;;;;;;;25.38;16.38;;;153.60;2252.80;;;;;;5071727;28;20052;-65
2021/04/19 01:10:28;;;;;;;31.55;19.10;;;128.90;2252.80;;;;;;5071011;28;20025;-66
2021/04/19 01:12:55;;;;;;;29.08;18.30;;;128.90;2252.80;;;;;;5071404;28;20044;-66
2021/04/19 01:15:20;;;;;;;32.28;19.63;;;128.90;2252.80;;;;;;5071298;28;20021;-65
2021/04/19 01:17:47;;;;;;;31.60;18.65;;;128.90;2252.80;;;;;;5071381;28;20043;-66
2021/04/19 01:20:18;;;;;;;26.95;17.10;;;128.80;2252.80;;;;;;5070971;28;20024;-66
2021/04/19 01:22:44;;;;;;;30.30;18.20;;;128.80;2252.80;;;;;;5071207;28;20020;-66
2021/04/19 01:25:15;;;;;;;76.32;33.85;;;128.70;2252.80;;;;;;5071153;28;20501;-67
2021/04/19 01:27:40;;;;;;;353.52;111.53;;;128.70;2252.80;;;;;;5071386;28;20028;-66
2021/04/19 01:30:07;;;;;;;566.35;202.63;;;128.70;2252.80;;;;;;5070768;28;20078;-66
2021/04/19 01:32:33;;;;;;;579.70;212.98;;;128.70;2252.80;;;;;;5070484;28;20381;-65
2021/04/19 01:34:59;;;;;;;567.85;207.40;;;128.60;2252.80;;;;;;5071488;28;20012;-65
2021/04/19 01:37:25;;;;;;;636.35;227.60;;;128.60;2252.80;;;;;;5071120;28;20594;-66
2021/04/19 01:39:51;;;;;;;504.33;156.35;;;128.50;2252.80;;;;;;5070484;28;20042;-66
2021/04/19 01:42:17;;;;;;;267.05;84.63;;;128.50;2252.80;;;;;;5071185;28;20027;-66
2021/04/19 01:44:43;;;;;;;170.50;56.17;;;128.40;2252.80;;;;;;5070849;28;20020;-67
2021/04/19 01:47:10;;;;;;;107.30;40.17;;;128.40;2252.80;;;;;;5070963;28;20028;-65
2021/04/19 01:49:36;;;;;;;90.60;36.35;;;128.40;2252.80;;;;;;5070176;28;20063;-66
2021/04/19 01:52:02;;;;;;;74.82;32.25;;;128.40;2252.80;;;;;;5071135;28;20028;-66
2021/04/19 01:54:28;;;;;;;98.57;39.47;;;128.50;2252.80;;;;;;5076179;28;20017;-66
2021/04/19 01:56:54;;;;;;;80.53;36.00;;;128.40;2252.80;;;;;;5070856;28;20082;-66
2021/04/19 01:59:20;;;;;;;157.48;53.33;;;128.40;2252.80;;;;;;5070623;28;20074;-66
2021/04/19 02:02:07;;;;;;;169.35;56.72;;;128.30;2252.80;;;;;;5070778;28;20116;-68
2021/04/19 02:04:38;;;;;;;197.25;65.35;;;128.30;2252.80;;;;;;5070734;28;20024;-66
2021/04/19 02:07:26;;;;;;;291.05;88.70;;;128.20;2252.80;;;;;;5070609;28;20481;-66
2021/04/19 02:10:04;;;;;;;223.05;67.13;;;128.20;2252.80;;;;;;5070192;28;20110;-67
2021/04/19 02:13:05;;;;;;;215.77;68.10;;;128.20;2252.80;;;;;;5070845;28;20105;-68
2021/04/19 02:15:56;;;;;;;191.13;61.50;;;128.10;2252.80;;;;;;5038581;28;20032;-66
2021/04/19 02:18:44;;;;;;;186.32;60.45;;;128.00;2252.80;;;;;;5070589;28;20077;-66
2021/04/19 02:21:39;;;;;;;152.02;50.67;;;128.10;2252.80;;;;;;5070611;28;20040;-67
2021/04/19 02:24:10;;;;;;;162.70;53.03;;;128.00;2252.80;;;;;;5055158;28;20032;-65
2021/04/19 02:26:42;;;;;;;130.18;46.72;;;128.10;2252.80;;;;;;5070741;28;20430;-66
2021/04/19 02:29:20;;;;;;;72.35;30.25;;;103.30;2227.20;;;;;;5070170;28;20017;-66
2021/04/19 02:31:56;;;;;;;53.22;23.33;;;103.30;2227.20;;;;;;5071369;28;20029;-66
2021/04/19 02:34:26;;;;;;;29.90;16.45;;;103.30;2227.20;;;;;;5070263;28;20070;-66
2021/04/19 02:36:53;;;;;;;24.93;13.97;;;128.00;2252.80;;;;;;5070690;28;20043;-66
2021/04/19 02:39:20;;;;;;;22.00;11.90;;;128.00;2252.80;;;;;;5070260;28;20758;-66
2021/04/19 02:41:51;;;;;;;24.45;14.48;;;128.00;2252.80;;;;;;5070607;28;20029;-66
2021/04/19 02:44:20;;;;;;;33.30;18.48;;;128.10;2252.80;;;;;;5071063;28;20025;-66
2021/04/19 02:46:53;;;;;;;27.50;17.75;;;128.10;2252.80;;;;;;5074278;28;20023;-66
2021/04/19 02:49:29;;;;;;;32.17;20.55;;;128.10;2252.80;;;;;;5074040;28;20388;-65
2021/04/19 02:51:56;;;;;;;39.65;25.30;;;128.20;2252.80;;;;;;5061548;28;20407;-66
2021/04/19 02:54:23;;;;;;;62.17;36.45;;;128.20;2252.80;;;;;;5079859;28;20129;-67
2021/04/19 02:56:51;;;;;;;59.72;35.70;;;128.30;2252.80;;;;;;5073802;28;20470;-67
2021/04/19 02:59:19;;;;;;;45.70;28.10;;;128.30;2252.80;;;;;;5074042;28;20093;-68
2021/04/19 03:01:48;;;;;;;29.55;18.25;;;128.40;2252.80;;;;;;5073708;28;20465;-67
2021/04/19 03:04:20;;;;;;;22.52;15.48;;;128.40;2252.80;;;;;;5073850;28;20081;-67
2021/04/19 03:06:51;;;;;;;24.73;16.67;;;128.40;2252.80;;;;;;5073677;28;20029;-67
2021/04/19 03:09:19;;;;;;;23.30;15.50;;;128.40;2252.80;;;;;;5073677;28;20031;-67
2021/04/19 03:11:58;;;;;;;22.77;15.18;;;128.40;2252.80;;;;;;5073561;28;20032;-67
2021/04/19 03:14:29;;;;;;;31.47;20.60;;;128.40;2252.80;;;;;;5073790;28;20029;-67
2021/04/19 03:17:00;;;;;;;;;;;128.40;2252.80;;;;;;5074074;28;20035;-66
2021/04/19 03:19:28;;;;;;;25.80;16.92;;;128.40;2252.80;;;;;;5073341;28;20368;-66
2021/04/19 03:21:54;;;;;;;27.27;18.30;;;128.40;2252.80;;;;;;5073225;28;20037;-66
2021/04/19 03:24:21;;;;;;;29.88;19.67;;;128.40;2252.80;;;;;;5073497;28;20029;-67
2021/04/19 03:26:52;;;;;;;29.67;19.95;;;128.40;2252.80;;;;;;5073340;28;20039;-67
2021/04/19 03:29:20;;;;;;;30.63;21.67;;;128.30;2252.80;;;;;;5073285;28;20024;-66
2021/04/19 03:31:51;;;;;;;32.53;22.50;;;128.20;2252.80;;;;;;5073708;28;20111;-67
2021/04/19 03:34:22;;;;;;;34.25;23.08;;;128.20;2252.80;;;;;;5072307;28;20355;-67
2021/04/19 03:36:54;;;;;;;;;;;128.20;2252.80;;;;;;5073983;28;20112;-66
2021/04/19 03:39:23;;;;;;;30.48;20.30;;;128.10;2252.80;;;;;;5072925;28;19905;-67
2021/04/19 03:41:53;;;;;;;30.10;20.33;;;128.00;2252.80;;;;;;5073303;28;20489;-66
2021/04/19 03:44:24;;;;;;;30.27;20.27;;;128.00;2252.80;;;;;;5073191;28;20065;-67
2021/04/19 03:46:52;;;;;;;31.40;19.65;;;128.00;2252.80;;;;;;5073020;28;20036;-67
2021/04/19 03:49:33;;;;;;;25.95;16.98;;;128.00;2252.80;;;;;;5072599;28;20085;-66
2021/04/19 03:52:04;;;;;;;27.65;17.90;;;128.00;2252.80;;;;;;5060630;28;20086;-67
2021/04/19 03:54:34;;;;;;;25.42;16.60;;;128.00;2252.80;;;;;;5078563;28;20052;-67
2021/04/19 03:57:05;;;;;;;27.80;16.53;;;128.10;2252.80;;;;;;5072837;28;20021;-67
2021/04/19 03:59:33;;;;;;;22.55;15.02;;;128.10;2252.80;;;;;;5072550;28;20028;-67
2021/04/19 04:02:01;;;;;;;24.33;15.73;;;128.00;2252.80;;;;;;5072888;28;20480;-67
2021/04/19 04:04:28;;;;;;;21.98;14.00;;;128.10;2252.80;;;;;;5072835;28;20032;-66
2021/04/19 04:06:55;;;;;;;20.02;13.02;;;128.20;2252.80;;;;;;5059731;28;20056;-68
2021/04/19 04:09:22;;;;;;;16.02;11.20;;;128.20;2252.80;;;;;;5072243;28;20035;-67
2021/04/19 04:11:48;;;;;;;17.35;10.20;;;128.30;2252.80;;;;;;5072229;28;20265;-67
2021/04/19 04:14:14;;;;;;;14.45;9.13;;;128.40;2252.80;;;;;;5072640;28;20103;-68
2021/04/19 04:16:42;;;;;;;11.77;7.88;;;128.50;2252.80;;;;;;5072303;28;20499;-67
2021/04/19 04:19:09;;;;;;;16.80;9.25;;;128.40;2252.80;;;;;;5072218;28;20048;-67
2021/04/19 04:21:36;;;;;;;14.35;9.18;;;128.40;2252.80;;;;;;5072193;28;20039;-68
2021/04/19 04:24:03;;;;;;;16.90;10.13;;;128.40;2252.80;;;;;;5072293;28;20028;-66
2021/04/19 04:26:30;;;;;;;19.35;12.57;;;128.40;2252.80;;;;;;5072324;28;20024;-68
2021/04/19 04:28:56;;;;;;;20.00;12.85;;;128.50;2252.80;;;;;;5071994;28;20396;-67
2021/04/19 04:31:22;;;;;;;16.70;12.00;;;128.60;2252.80;;;;;;5072313;28;20032;-67
2021/04/19 04:33:47;;;;;;;16.35;11.65;;;128.70;2252.80;;;;;;5072206;28;20020;-67
2021/04/19 04:36:13;;;;;;;19.00;11.38;;;128.80;2252.80;;;;;;5071759;28;20028;-66
2021/04/19 04:38:39;;;;;;;15.48;10.65;;;128.90;2252.80;;;;;;5071786;28;20040;-66
2021/04/19 04:41:05;;;;;;;15.75;10.32;;;153.70;2252.80;;;;;;5071982;28;20028;-66
2021/04/19 04:43:34;;;;;;;21.20;12.63;;;153.80;2252.80;;;;;;5072290;28;20389;-66
2021/04/19 04:46:45;;;;;;;11.45;7.85;;;153.90;2252.80;;;;;;5071794;28;20028;-66
2021/04/19 04:49:20;;;;;;;10.15;7.18;;;153.90;2252.80;;;;;;5071719;28;20024;-66
2021/04/19 04:51:47;;;;;;;10.95;7.50;;;154.10;2252.80;;;;;;5071932;28;20064;-66
2021/04/19 04:54:17;;;;;;;15.55;10.40;;;154.20;2252.80;;;;;;5077281;28;20099;-66
2021/04/19 04:56:48;;;;;;;12.40;8.65;;;154.20;2252.80;;;;;;5071551;28;20481;-66
2021/04/19 04:59:14;;;;;;;10.70;7.95;;;154.30;2252.80;;;;;;5071389;28;20042;-66
2021/04/19 05:01:43;;;;;;;12.05;8.10;;;154.40;2252.80;;;;;;5061734;28;20016;-65
2021/04/19 05:04:09;;;;;;;12.05;8.13;;;154.50;2252.80;;;;;;5071837;28;20730;-65
2021/04/19 05:06:36;;;;;;;11.43;7.85;;;154.50;2252.80;;;;;;5070907;28;20028;-64
2021/04/19 05:09:02;;;;;;;11.52;7.80;;;179.20;2252.80;;;;;;5069660;28;20020;-66
2021/04/19 05:11:28;;;;;;;12.60;8.68;;;179.20;2252.80;;;;;;5071454;28;20021;-66
2021/04/19 05:14:03;;;;;;;12.13;8.45;;;179.30;2252.80;;;;;;5066648;28;20469;-66
2021/04/19 05:16:30;;;;;;;13.00;8.43;;;179.40;2252.80;;;;;;5071250;28;20024;-66
2021/04/19 05:19:01;;;;;;;18.25;10.55;;;179.50;2252.80;;;;;;5070873;28;20028;-67
2021/04/19 05:21:27;;;;;;;20.48;13.30;;;179.70;2252.80;;;;;;5058727;28;20032;-66
2021/04/19 05:23:53;;;;;;;17.65;11.60;;;179.90;2252.80;;;;;;5053163;28;20024;-67
2021/04/19 05:26:20;;;;;;;18.67;12.80;;;180.10;2252.80;;;;;;5053187;28;20048;-65
2021/04/19 05:28:46;;;;;;;16.02;11.27;;;204.90;2252.80;;;;;;5054882;28;20020;-68
2021/04/19 05:31:12;;;;;;;16.30;11.18;;;205.20;2252.80;;;;;;5055875;28;20033;-64
2021/04/19 05:33:38;;;;;;;15.93;11.13;;;205.70;2252.80;;;;;;5071218;28;20043;-66
2021/04/19 05:36:14;;;;;;;13.63;9.77;;;230.80;2252.80;;;;;;5070869;28;20481;-67
2021/04/19 05:38:44;;;;;;;18.92;12.20;;;231.10;2252.80;;;;;;5064350;28;20101;-69
2021/04/19 05:41:14;;;;;;;16.40;11.32;;;231.20;2252.80;;;;;;5067403;28;20033;-65
2021/04/19 05:43:42;;;;;;;15.05;9.60;;;231.20;2252.80;;;;;;5067598;28;20029;-66
2021/04/19 05:46:08;;;;;;;18.17;11.10;;;231.10;2252.80;;;;;;5069369;28;20043;-66
2021/04/19 05:48:34;;;;;;;28.75;17.30;;;231.00;2252.80;;;;;;5066681;28;20031;-66
2021/04/19 05:51:03;;;;;;;34.55;20.38;;;231.00;2252.80;;;;;;5070334;28;20102;-70
2021/04/19 05:53:30;;;;;;;32.17;20.27;;;231.20;2252.80;;;;;;5064075;28;20132;-65
2021/04/19 05:55:57;;;;;;;25.42;17.77;;;256.00;2252.80;;;;;;5051671;28;20446;-66
2021/04/19 05:58:35;;;;;;;20.75;16.13;;;256.40;2252.80;;;;;;5052245;28;20481;-65
2021/04/19 06:01:07;;;;;;;23.13;17.92;;;256.50;2252.80;;;;;;5050590;28;20493;-65
2021/04/19 06:03:33;;;;;;;23.83;17.60;;;256.90;2252.80;;;;;;5050134;28;20025;-65
2021/04/19 06:06:22;;;;;;;20.67;12.98;;;282.00;2278.40;;;;;;5069401;28;20081;-66
2021/04/19 06:09:15;;;;;;;18.08;12.70;;;282.40;2278.40;;;;;;5068871;28;20100;-70
2021/04/19 06:11:44;;;;;;;19.92;13.48;;;307.40;2252.80;;;;;;5069522;28;20417;-66
2021/04/19 06:14:14;;;;;;;19.35;14.82;;;307.40;2227.20;;;;;;5061336;28;20021;-72
2021/04/19 06:16:41;;;;;;;17.15;12.65;;;307.60;2227.20;;;;;;5052033;28;20031;-66
2021/04/19 06:19:12;;;;;;;20.27;14.13;;;307.50;2201.60;;;;;;5053380;28;20021;-66
2021/04/19 06:21:39;;;;;;;15.25;11.13;;;307.50;2227.20;;;;;;5055310;28;20271;-70
2021/04/19 06:24:06;;;;;;;14.52;11.07;;;307.50;2278.40;;;;;;5057114;28;20431;-72
2021/04/19 06:26:34;;;;;;;16.15;11.02;;;307.40;2278.40;;;;;;5056063;28;20021;-70
2021/04/19 06:29:00;;;;;;;16.05;12.18;;;307.50;2278.40;;;;;;5060538;28;20044;-70
2021/04/19 06:31:26;;;;;;;16.45;12.57;;;307.80;2278.40;;;;;;5054575;28;20462;-66
2021/04/19 06:34:09;;;;;;;16.92;12.30;;;308.10;2176.00;;;;;;5070097;28;20036;-66
2021/04/19 06:36:39;;;;;;;68.68;41.80;;;332.80;2176.00;;;;;;5070161;28;20112;-66
2021/04/19 06:39:08;;;;;;;20.02;14.40;;;332.90;2176.00;;;;;;5058823;28;20100;-66
2021/04/19 06:41:34;;;;;;;20.15;14.27;;;332.90;2150.40;;;;;;5054280;28;20036;-71
2021/04/19 06:44:01;;;;;;;19.05;14.13;;;332.80;2150.40;;;;;;5053557;28;20053;-69
2021/04/19 06:46:31;;;;;;;19.83;14.48;;;308.10;2150.40;;;;;;5060192;28;20044;-71
2021/04/19 06:48:57;;;;;;;20.67;15.05;;;333.00;2124.80;;;;;;5074065;28;20060;-73
2021/04/19 06:51:23;;;;;;;20.13;14.90;;;333.20;2099.20;;;;;;5073798;28;20072;-71
2021/04/19 06:53:53;;;;;;;23.00;15.80;;;333.50;2073.60;;;;;;5079206;28;20020;-67
2021/04/19 06:56:24;;;;;;;21.42;15.13;;;333.60;2073.60;;;;;;5073984;28;20021;-66
2021/04/19 06:58:55;;;;;;;21.25;15.50;;;333.60;2048.00;;;;;;5073917;28;20584;-67
2021/04/19 07:01:25;;;;;;;22.77;16.35;;;333.30;2048.00;;;;;;5064312;28;20111;-66
2021/04/19 07:04:00;;;;;;;21.43;14.83;;;333.40;2073.60;;;;;;5073424;28;20020;-66
2021/04/19 07:06:31;;;;;;;21.70;15.85;;;333.40;2073.60;;;;;;5060608;28;20289;-66
2021/04/19 07:09:14;;;;;;;21.95;16.05;;;333.40;2073.60;;;;;;5054350;28;20017;-66
2021/04/19 07:11:43;;;;;;;22.20;15.23;;;333.20;2099.20;;;;;;5056917;28;20021;-65
2021/04/19 07:14:09;;;;;;;21.15;15.10;;;333.20;2048.00;;;;;;5061770;28;20016;-68
2021/04/19 07:16:35;;;;;;;20.35;15.63;;;333.00;2048.00;;;;;;5073510;28;20027;-67
2021/04/19 07:19:02;;;;;;;22.85;16.92;;;333.10;2073.60;;;;;;5071686;28;20021;-67
2021/04/19 07:21:28;;;;;;;23.00;16.65;;;333.20;2073.60;;;;;;5054575;28;20052;-68
2021/04/19 07:23:55;;;;;;;21.42;15.88;;;333.10;2073.60;;;;;;5072080;28;20027;-67
2021/04/19 07:26:21;;;;;;;21.17;15.40;;;333.10;2048.00;;;;;;5056136;28;20409;-66
2021/04/19 07:28:47;;;;;;;21.48;15.65;;;333.10;2048.00;;;;;;5054673;28;20108;-71
2021/04/19 07:31:14;;;;;;;23.52;16.88;;;333.10;2048.00;;;;;;5055930;28;20162;-67
2021/04/19 07:33:40;;;;;;;24.30;16.17;;;333.00;2073.60;;;;;;5064345;28;20054;-66
2021/04/19 07:36:28;;;;;;;24.25;16.85;;;333.20;2073.60;;;;;;5062129;28;20043;-66
2021/04/19 07:39:00;;;;;;;26.25;18.45;;;333.40;1996.80;;;;;;5054870;28;20111;-67
2021/04/19 07:41:49;;;;;;;22.08;15.68;;;333.70;1996.80;;;;;;5059581;28;20031;-66
2021/04/19 07:44:46;;;;;;;22.20;16.95;;;333.60;1971.20;;;;;;5059916;28;20025;-66
2021/04/19 07:47:38;;;;;;;21.40;16.25;;;358.40;1996.80;;;;;;5054908;28;20032;-66
2021/04/19 07:50:10;;;;;;;18.67;14.80;;;333.70;1996.80;;;;;;5053170;28;20045;-66
2021/04/19 07:52:55;;;;;;;19.98;15.02;;;358.40;1971.20;;;;;;5052302;28;20319;-66
2021/04/19 07:55:22;;;;;;;18.30;14.18;;;358.40;1971.20;;;;;;5056868;28;20071;-66
2021/04/19 07:57:49;;;;;;;17.10;12.23;;;358.40;1971.20;;;;;;5054995;28;20465;-65
2021/04/19 08:00:25;;;;;;;18.88;15.25;;;358.50;1945.60;;;;;;5055276;28;20411;-66
2021/04/19 08:02:58;;;;;;;17.13;12.65;;;358.70;1920.00;;;;;;5067948;28;20072;-66
2021/04/19 08:05:50;;;;;;;16.05;12.20;;;358.80;1894.40;;;;;;5071309;28;20019;-66
2021/04/19 08:08:38;;;;;;;17.55;12.70;;;358.90;1868.80;;;;;;5065531;28;20423;-67
2021/04/19 08:11:10;;;;;;;16.90;12.38;;;359.00;1868.80;;;;;;5069089;28;20028;-68
2021/04/19 08:13:36;;;;;;;15.30;11.90;;;358.90;1894.40;;;;;;5071948;28;20112;-68
2021/04/19 08:16:24;;;;;;;16.58;11.95;;;358.90;1868.80;;;;;;5070903;28;20036;-65
2021/04/19 08:18:51;;;;;;;16.02;11.80;;;359.30;1817.60;;;;;;5058330;28;20033;-66
2021/04/19 08:21:30;;;;;;;14.57;11.25;;;359.00;1843.20;;;;;;5059125;28;20490;-67
2021/04/19 08:24:09;;;;;;;15.13;11.75;;;359.00;1817.60;;;;;;5070662;28;20025;-67
2021/04/19 08:26:52;;;;;;;16.70;13.02;;;384.20;1792.00;;;;;;5071587;28;20811;-66
2021/04/19 08:29:37;;;;;;;14.93;11.45;;;410.20;1689.60;;;;;;5058052;28;20021;-66
2021/04/19 08:32:04;;;;;;;16.60;12.50;;;410.50;1638.40;;;;;;5072246;28;20032;-65
2021/04/19 08:34:30;;;;;;;17.60;13.73;;;435.80;1612.80;;;;;;5065146;28;20032;-67
2021/04/19 08:36:59;;;;;;;16.48;12.20;;;436.10;1612.80;;;;;;5054521;28;20381;-66
2021/04/19 08:39:25;;;;;;;17.00;12.10;;;460.90;1612.80;;;;;;5067054;28;20025;-66
2021/04/19 08:41:52;;;;;;;15.88;13.10;;;435.90;1587.20;;;;;;5062814;28;20306;-66
2021/04/19 08:44:19;;;;;;;23.15;17.52;;;435.90;1561.60;;;;;;5052382;28;20044;-66
2021/04/19 08:46:45;;;;;;;16.92;13.30;;;435.90;1561.60;;;;;;5066109;28;20408;-67
2021/04/19 08:49:11;;;;;;;18.15;13.52;;;435.30;1612.80;;;;;;5071221;28;20461;-66
2021/04/19 08:51:38;;;;;;;16.40;12.98;;;435.20;1638.40;;;;;;5071451;28;20119;-67
2021/04/19 08:54:04;;;;;;;19.75;13.48;;;410.10;1664.00;;;;;;5075719;28;20013;-68
2021/04/19 08:56:30;;;;;;;21.90;12.95;;;410.00;1664.00;;;;;;5069663;28;20101;-72
2021/04/19 08:58:56;;;;;;;17.70;13.13;;;409.80;1689.60;;;;;;5069988;28;20513;-73
2021/04/19 09:01:22;;;;;;;19.85;13.05;;;409.60;1689.60;;;;;;5063763;28;20028;-67
2021/04/19 09:04:07;;;;;;;16.15;12.18;;;384.90;1689.60;;;;;;5055228;28;20093;-66
2021/04/19 09:06:54;;;;;;;17.38;13.32;;;409.70;1715.20;;;;;;5067513;28;20020;-67
2021/04/19 09:09:32;;;;;;;17.13;12.43;;;409.90;1689.60;;;;;;5051079;28;20493;-70
2021/04/19 09:12:13;;;;;;;20.58;13.82;;;409.90;1689.60;;;;;;5053938;28;20035;-68
2021/04/19 09:14:39;;;;;;;;;;;409.60;1664.00;;;;;;5052009;28;20500;-66
2021/04/19 09:17:06;;;;;;;17.08;13.25;;;384.40;1638.40;;;;;;5052702;28;19963;-69
2021/04/19 09:19:35;;;;;;;20.55;14.30;;;384.30;1689.60;;;;;;5050428;28;20033;-71
2021/04/19 09:22:12;;;;;;;19.52;13.88;;;384.10;1689.60;;;;;;5051898;28;20020;-70
2021/04/19 09:25:02;;;;;;;17.15;12.65;;;384.40;1689.60;;;;;;5049719;28;20029;-71
2021/04/19 09:27:45;;;;;;;15.77;12.38;;;384.50;1664.00;;;;;;5051696;28;20079;-68
2021/04/19 09:30:27;;;;;;;15.13;11.52;;;384.60;1664.00;;;;;;5062619;28;20138;-70
2021/04/19 09:33:05;;;;;;;14.57;11.55;;;384.80;1664.00;;;;;;5051705;28;20025;-68
2021/04/19 09:38:12;;;;;;;16.48;12.38;;;384.00;1689.60;;;;;;5054994;28;20024;-68
2021/04/19 09:40:55;;;;;;;177.32;105.72;;;384.00;1715.20;;;;;;5059655;28;20405;-66
2021/04/19 09:43:49;;;;;;;28.05;22.55;;;359.20;1766.40;;;;;;5054169;28;20020;-70
2021/04/19 09:46:18;;;;;;;17.92;12.52;;;359.00;1792.00;;;;;;5053587;28;20076;-68
2021/04/19 09:49:10;;;;;;;15.00;11.57;;;358.80;1792.00;;;;;;5056085;28;20021;-67
2021/04/19 09:51:43;;;;;;;14.90;11.63;;;359.20;1766.40;;;;;;5058526;28;20055;-68
2021/04/19 09:54:15;;;;;;;17.35;13.20;;;384.00;1715.20;;;;;;5060894;28;20024;-68
2021/04/19 09:56:56;;;;;;;19.30;14.52;;;358.60;1792.00;;;;;;5055624;28;20023;-68
2021/04/19 09:59:24;;;;;;;24.90;17.42;;;333.70;1868.80;;;;;;5057230;28;20028;-67
2021/04/19 10:01:55;;;;;;;20.38;13.32;;;333.50;1894.40;;;;;;5059145;28;20037;-66
2021/04/19 10:04:22;;;;;;;;;;;333.10;1894.40;;;;;;5053270;28;20017;-66
2021/04/19 10:06:54;;;;;;;24.40;15.80;;;333.00;1920.00;;;;;;5057880;28;19916;-65
2021/04/19 10:09:41;;;;;;;35.95;22.35;;;333.30;1920.00;;;;;;5055337;28;20377;-69
2021/04/19 10:12:09;;;;;;;19.02;12.98;;;333.30;1894.40;;;;;;5055906;28;20025;-69
2021/04/19 10:14:40;;;;;;;16.40;12.10;;;333.10;1894.40;;;;;;5050409;28;20024;-67
2021/04/19 10:17:21;;;;;;;17.27;13.27;;;333.30;1868.80;;;;;;5057689;28;20017;-65
2021/04/19 10:19:47;;;;;;;18.30;12.77;;;333.20;1920.00;;;;;;5057223;28;20064;-64
2021/04/19 10:22:13;;;;;;;17.17;12.75;;;333.20;1920.00;;;;;;5064416;28;20025;-68
2021/04/19 10:24:56;;;;;;;26.92;14.43;;;333.40;1868.80;;;;;;5070644;28;20047;-65
2021/04/19 10:27:30;;;;;;;19.38;13.63;;;333.10;1894.40;;;;;;5066050;28;20485;-65
2021/04/19 10:30:08;;;;;;;22.30;15.05;;;332.90;1945.60;;;;;;5069434;28;20021;-64
2021/04/19 10:32:34;;;;;;;20.00;14.20;;;332.90;1945.60;;;;;;5067772;28;20381;-66
2021/04/19 10:35:00;;;;;;;19.30;14.02;;;332.90;1920.00;;;;;;5050512;28;20022;-66
2021/04/19 10:37:26;;;;;;;23.33;16.27;;;307.90;1920.00;;;;;;5050655;28;20477;-66
2021/04/19 10:39:52;;;;;;;33.45;23.45;;;308.00;1920.00;;;;;;5053717;28;20029;-69
2021/04/19 10:42:27;;;;;;;21.88;16.48;;;332.90;1971.20;;;;;;5049439;28;20025;-67
2021/04/19 10:44:56;;;;;;;19.50;14.18;;;333.20;1920.00;;;;;;5048866;28;20025;-67
2021/04/19 10:47:29;;;;;;;18.08;13.70;;;333.10;1868.80;;;;;;5051090;28;20025;-68
2021/04/19 10:49:56;;;;;;;18.85;13.50;;;308.10;1894.40;;;;;;5052387;28;20044;-65
2021/04/19 10:52:22;;;;;;;16.42;12.23;;;308.00;1945.60;;;;;;5050130;28;20590;-65
2021/04/19 10:54:48;;;;;;;20.40;14.40;;;332.80;1920.00;;;;;;5054077;28;20079;-64
2021/04/19 10:57:40;;;;;;;18.73;13.25;;;308.00;1920.00;;;;;;5070055;28;20029;-65
2021/04/19 11:00:06;;;;;;;18.67;13.38;;;308.00;1920.00;;;;;;5066475;28;20403;-65
2021/04/19 11:02:32;;;;;;;19.60;13.68;;;307.90;1920.00;;;;;;5074163;28;20086;-67
2021/04/19 11:04:59;;;;;;;19.98;13.73;;;308.00;1945.60;;;;;;5070046;28;20496;-67
2021/04/19 11:07:26;;;;;;;20.35;14.88;;;308.10;1945.60;;;;;;5073108;28;20052;-66
2021/04/19 11:10:23;;;;;;;19.67;11.95;;;307.90;1920.00;;;;;;5072685;28;20525;-66
2021/04/19 11:13:02;;;;;;;24.27;14.65;;;308.00;1920.00;;;;;;5073382;28;20162;-66
2021/04/19 11:15:31;;;;;;;21.25;14.43;;;308.10;1894.40;;;;;;5070637;28;20111;-65
2021/04/19 11:17:57;;;;;;;21.88;14.82;;;307.60;1945.60;;;;;;5066298;28;20020;-66
2021/04/19 11:20:30;;;;;;;19.20;13.90;;;307.50;1971.20;;;;;;5072960;28;20017;-66
2021/04/19 11:22:59;;;;;;;18.10;12.98;;;307.60;1971.20;;;;;;5072919;28;20542;-67
2021/04/19 11:25:30;;;;;;;23.65;16.55;;;307.80;1920.00;;;;;;5073415;28;20547;-67
2021/04/19 11:28:17;;;;;;;19.80;13.65;;;308.00;1920.00;;;;;;5072826;28;20047;-67
2021/04/19 11:30:44;;;;;;;22.15;14.38;;;307.90;1971.20;;;;;;5072682;28;20066;-67
2021/04/19 11:33:19;;;;;;;24.38;16.63;;;307.80;1971.20;;;;;;5073038;28;20099;-67
2021/04/19 11:35:47;;;;;;;20.83;13.45;;;307.80;1996.80;;;;;;5073168;28;20078;-66
2021/04/19 11:38:21;;;;;;;14.32;11.25;;;307.50;1996.80;;;;;;5072849;28;20111;-68
2021/04/19 11:40:57;;;;;;;16.52;11.93;;;307.60;2022.40;;;;;;5076129;28;20029;-66
2021/04/19 11:43:28;;;;;;;23.02;14.75;;;307.90;2022.40;;;;;;5059468;28;20067;-67
2021/04/19 11:46:16;;;;;;;18.85;13.55;;;308.10;1996.80;;;;;;5072595;28;20020;-68
2021/04/19 11:48:44;;;;;;;13.48;10.35;;;332.80;1996.80;;;;;;5061087;28;20029;-67
2021/04/19 11:51:14;;;;;;;14.27;10.82;;;308.10;1971.20;;;;;;5072523;28;20098;-68
2021/04/19 11:53:41;;;;;;;14.07;10.55;;;332.80;1996.80;;;;;;5073153;28;20389;-67
2021/04/19 11:56:08;;;;;;;15.85;11.77;;;308.10;1971.20;;;;;;5072952;28;20025;-66
2021/04/19 11:58:36;;;;;;;15.30;12.02;;;333.10;1945.60;;;;;;5072291;28;20032;-67
2021/04/19 12:01:03;;;;;;;16.73;11.60;;;333.40;1920.00;;;;;;5075313;28;20035;-66
2021/04/19 12:03:29;;;;;;;16.05;12.02;;;333.30;1894.40;;;;;;5073921;28;20393;-68
2021/04/19 12:05:55;;;;;;;19.08;16.65;;;333.20;1894.40;;;;;;5072580;28;20040;-66
2021/04/19 12:08:22;;;;;;;18.60;13.43;;;333.60;1868.80;;;;;;5072276;28;20023;-67
2021/04/19 12:10:48;;;;;;;24.67;17.02;;;358.40;1843.20;;;;;;5072645;28;20022;-67
2021/04/19 12:13:14;;;;;;;17.48;12.95;;;333.60;1920.00;;;;;;5072037;28;20031;-67
2021/04/19 12:15:41;;;;;;;18.83;13.90;;;333.40;1920.00;;;;;;5072542;28;20082;-68
2021/04/19 12:18:07;;;;;;;19.50;13.27;;;333.40;1945.60;;;;;;5072584;28;20032;-67
2021/04/19 12:20:33;;;;;;;18.88;12.73;;;333.30;1945.60;;;;;;5071987;28;20024;-68
2021/04/19 12:22:59;;;;;;;18.30;13.15;;;333.70;1920.00;;;;;;5072215;28;20055;-67